createdAt,value
2017-09-11T00:01:21.028Z,1.10
2017-09-11T00:03:47.649Z,1.07
2017-09-11T00:06:13.981Z,1.50
2017-09-11T00:08:40.256Z,1.20
2017-09-11T00:11:06.523Z,1.40
2017-09-11T00:13:32.834Z,1.20
2017-09-11T00:15:59.095Z,1.50
2017-09-11T00:18:25.399Z,1.00
2017-09-11T00:20:51.656Z,1.20
2017-09-11T00:23:17.966Z,1.03
2017-09-11T00:25:44.297Z,1.03
2017-09-11T00:28:10.605Z,0.80
2017-09-11T00:30:36.894Z,0.90
2017-09-11T00:33:03.391Z,0.97
2017-09-11T00:35:29.749Z,1.13
2017-09-11T00:37:56.088Z,0.97
2017-09-11T00:40:22.401Z,0.80
2017-09-11T00:42:48.756Z,0.80
2017-09-11T00:45:15.044Z,1.10
2017-09-11T00:47:41.354Z,0.90
2017-09-11T00:50:07.688Z,0.93
2017-09-11T00:52:34.001Z,0.90
2017-09-11T00:55:00.379Z,0.93
2017-09-11T00:57:26.688Z,1.20
2017-09-11T00:59:53.040Z,0.90
2017-09-11T01:02:19.399Z,0.90
2017-09-11T01:04:45.689Z,0.80
2017-09-11T01:07:12.020Z,0.97
2017-09-11T01:09:38.348Z,1.00
2017-09-11T01:12:04.643Z,0.97
2017-09-11T01:14:31.692Z,1.27
2017-09-11T01:16:58.001Z,0.90
2017-09-11T01:19:24.368Z,0.97
2017-09-11T01:21:50.732Z,0.93
2017-09-11T01:24:17.124Z,0.90
2017-09-11T01:26:43.471Z,1.03
2017-09-11T01:29:10.203Z,0.93
2017-09-11T01:31:36.588Z,0.90
2017-09-11T01:34:02.866Z,1.00
2017-09-11T01:36:29.195Z,0.70
2017-09-11T01:38:55.480Z,0.60
2017-09-11T01:41:21.893Z,0.87
2017-09-11T01:43:48.196Z,0.80
2017-09-11T01:46:14.570Z,0.90
2017-09-11T01:48:40.890Z,0.73
2017-09-11T01:51:07.252Z,0.80
2017-09-11T01:53:33.584Z,0.90
2017-09-11T01:55:59.896Z,0.60
2017-09-11T01:58:26.194Z,0.80
2017-09-11T02:00:52.570Z,0.80
2017-09-11T02:03:18.855Z,0.90
2017-09-11T02:05:45.172Z,0.90
2017-09-11T02:08:11.460Z,0.80
2017-09-11T02:10:37.755Z,0.87
2017-09-11T02:13:04.147Z,0.83
2017-09-11T02:15:30.417Z,0.97
2017-09-11T02:17:56.744Z,0.83
2017-09-11T02:20:23.053Z,0.73
2017-09-11T02:22:49.500Z,1.07
2017-09-11T02:25:15.940Z,0.90
2017-09-11T02:27:42.265Z,1.10
2017-09-11T02:30:08.605Z,0.90
2017-09-11T02:32:34.905Z,0.67
2017-09-11T02:35:01.249Z,0.67
2017-09-11T02:37:27.552Z,0.90
2017-09-11T02:39:54.119Z,0.90
2017-09-11T02:42:20.473Z,1.13
2017-09-11T02:44:46.784Z,0.80
2017-09-11T02:47:13.065Z,0.70
2017-09-11T02:49:39.369Z,0.73
2017-09-11T02:52:05.702Z,0.80
2017-09-11T02:54:32.081Z,0.60
2017-09-11T02:56:58.348Z,0.93
2017-09-11T02:59:24.628Z,0.87
2017-09-11T03:01:50.939Z,0.90
2017-09-11T03:04:17.198Z,0.77
2017-09-11T03:06:43.480Z,0.90
2017-09-11T03:09:09.788Z,0.70
2017-09-11T03:11:36.085Z,0.80
2017-09-11T03:14:02.428Z,0.80
2017-09-11T03:16:28.724Z,0.70
2017-09-11T03:18:55.015Z,0.70
2017-09-11T03:21:21.309Z,0.77
2017-09-11T03:23:47.916Z,0.80
2017-09-11T03:26:14.244Z,0.70
2017-09-11T03:28:40.564Z,0.70
2017-09-11T03:31:06.857Z,1.23
2017-09-11T03:33:33.208Z,0.70
2017-09-11T03:35:59.533Z,0.73
2017-09-11T03:38:25.866Z,0.77
2017-09-11T03:40:52.175Z,0.70
2017-09-11T03:43:18.485Z,0.63
2017-09-11T03:45:44.868Z,0.60
2017-09-11T03:48:11.236Z,0.70
2017-09-11T03:50:37.539Z,0.60
2017-09-11T03:53:03.801Z,0.80
2017-09-11T03:55:30.087Z,0.97
2017-09-11T03:57:56.360Z,0.73
2017-09-11T04:00:22.692Z,0.80
2017-09-11T04:02:49.064Z,0.90
2017-09-11T04:05:15.838Z,0.70
2017-09-11T04:07:42.220Z,0.90
2017-09-11T04:10:08.538Z,0.87
2017-09-11T04:12:34.824Z,0.80
2017-09-11T04:15:01.151Z,0.70
2017-09-11T04:17:27.517Z,0.80
2017-09-11T04:19:54.585Z,0.80
2017-09-11T04:22:20.884Z,0.80
2017-09-11T04:24:47.200Z,0.80
2017-09-11T04:27:13.537Z,1.00
2017-09-11T04:29:39.847Z,0.80
2017-09-11T04:32:06.130Z,0.80
2017-09-11T04:34:32.420Z,0.80
2017-09-11T04:36:58.792Z,0.70
2017-09-11T04:39:25.104Z,1.10
2017-09-11T04:41:51.441Z,0.80
2017-09-11T04:44:17.692Z,0.90
2017-09-11T04:46:44.076Z,0.90
2017-09-11T04:49:10.364Z,0.90
2017-09-11T04:51:36.696Z,0.97
2017-09-11T04:54:03.040Z,1.00
2017-09-11T04:56:29.347Z,1.07
2017-09-11T04:58:55.636Z,1.20
2017-09-11T05:01:21.969Z,1.70
2017-09-11T05:03:48.268Z,1.17
2017-09-11T05:06:14.596Z,1.23
2017-09-11T05:08:40.896Z,1.57
2017-09-11T05:11:07.212Z,0.90
2017-09-11T05:13:33.556Z,1.00
2017-09-11T05:15:59.856Z,1.03
2017-09-11T05:18:26.441Z,0.90
2017-09-11T05:20:52.752Z,0.90
2017-09-11T05:23:19.104Z,1.40
2017-09-11T05:25:45.416Z,1.23
2017-09-11T05:28:11.729Z,1.10
2017-09-11T05:30:38.423Z,0.83
2017-09-11T05:33:04.762Z,1.30
2017-09-11T05:35:31.073Z,1.47
2017-09-11T05:37:57.899Z,1.10
2017-09-11T05:40:24.236Z,1.37
2017-09-11T05:42:50.630Z,0.80
2017-09-11T05:45:16.928Z,1.20
2017-09-11T05:47:43.208Z,1.00
2017-09-11T05:50:09.500Z,1.20
2017-09-11T05:52:35.772Z,1.00
2017-09-11T05:55:02.316Z,0.90
2017-09-11T05:57:28.716Z,1.00
2017-09-11T05:59:55.016Z,1.17
2017-09-11T06:02:22.063Z,0.80
2017-09-11T06:04:48.504Z,1.10
2017-09-11T06:07:14.809Z,1.30
2017-09-11T06:09:41.119Z,0.90
2017-09-11T06:12:07.382Z,0.97
2017-09-11T06:14:33.707Z,1.00
2017-09-11T06:17:00.068Z,1.30
2017-09-11T06:19:26.365Z,1.30
2017-09-11T06:21:52.651Z,1.20
2017-09-11T06:24:18.985Z,0.90
2017-09-11T06:26:45.284Z,1.10
2017-09-11T06:29:11.640Z,0.90
2017-09-11T06:31:37.976Z,1.10
2017-09-11T06:34:04.316Z,1.30
2017-09-11T06:36:30.655Z,1.10
2017-09-11T06:38:56.952Z,1.30
2017-09-11T06:41:23.265Z,1.20
2017-09-11T06:43:49.604Z,1.80
2017-09-11T06:46:15.913Z,1.57
2017-09-11T06:48:42.430Z,1.20
2017-09-11T06:51:08.728Z,1.37
2017-09-11T06:53:35.757Z,1.40
2017-09-11T06:56:02.145Z,1.40
2017-09-11T06:58:28.421Z,1.90
2017-09-11T07:00:54.698Z,1.60
2017-09-11T07:03:21.049Z,1.30
2017-09-11T07:05:47.379Z,1.50
2017-09-11T07:08:13.735Z,1.50
2017-09-11T07:10:40.168Z,1.40
2017-09-11T07:13:18.579Z,1.40
2017-09-11T07:15:44.926Z,1.20
2017-09-11T07:18:11.255Z,1.53
2017-09-11T07:20:37.615Z,1.17
2017-09-11T07:23:03.896Z,1.20
2017-09-11T07:25:30.220Z,1.23
2017-09-11T07:27:56.496Z,1.33
2017-09-11T07:30:22.792Z,1.10
2017-09-11T07:32:49.099Z,1.17
2017-09-11T07:35:15.364Z,1.00
2017-09-11T07:37:41.852Z,0.90
2017-09-11T07:40:08.129Z,0.83
2017-09-11T07:42:34.408Z,0.80
2017-09-11T07:45:00.792Z,0.80
2017-09-11T07:47:27.135Z,1.03
2017-09-11T07:49:53.436Z,0.90
2017-09-11T07:52:19.713Z,0.90
2017-09-11T07:54:46.779Z,1.33
2017-09-11T07:57:13.070Z,1.57
2017-09-11T07:59:39.428Z,2.93
2017-09-11T08:02:05.681Z,2.20
2017-09-11T08:04:31.961Z,1.90
2017-09-11T08:06:58.263Z,2.47
2017-09-11T08:09:24.620Z,1.87
2017-09-11T08:11:50.981Z,2.10
2017-09-11T08:14:17.236Z,1.80
2017-09-11T08:16:43.548Z,1.53
2017-09-11T08:19:10.061Z,1.30
2017-09-11T08:21:36.548Z,2.50
2017-09-11T08:24:03.664Z,2.07
2017-09-11T08:26:29.932Z,1.30
2017-09-11T08:28:56.308Z,1.63
2017-09-11T08:31:22.569Z,2.00
2017-09-11T08:33:48.905Z,1.33
2017-09-11T08:36:15.573Z,1.50
2017-09-11T08:38:41.868Z,1.20
2017-09-11T08:41:08.200Z,1.20
2017-09-11T08:43:34.560Z,1.43
2017-09-11T08:46:00.844Z,1.27
2017-09-11T08:48:27.139Z,2.07
2017-09-11T08:50:53.813Z,1.10
2017-09-11T08:53:20.132Z,1.20
2017-09-11T08:55:46.711Z,1.20
2017-09-11T08:58:13.074Z,1.10
2017-09-11T09:00:39.401Z,1.10
2017-09-11T09:03:05.707Z,1.00
2017-09-11T09:05:32.452Z,1.47
2017-09-11T09:07:59.028Z,1.10
2017-09-11T09:10:25.351Z,1.20
2017-09-11T09:12:51.724Z,0.80
2017-09-11T09:15:18.055Z,1.10
2017-09-11T09:17:44.502Z,0.80
2017-09-11T09:20:10.793Z,1.10
2017-09-11T09:22:37.078Z,1.13
2017-09-11T09:25:03.393Z,0.77
2017-09-11T09:27:29.692Z,1.03
2017-09-11T09:29:56.041Z,0.80
2017-09-11T09:32:22.315Z,1.00
2017-09-11T09:34:48.648Z,0.70
2017-09-11T09:37:14.979Z,0.70
2017-09-11T09:39:41.248Z,1.27
2017-09-11T09:42:07.519Z,1.00
2017-09-11T09:44:33.837Z,1.00
2017-09-11T09:47:00.139Z,1.10
2017-09-11T09:49:26.435Z,0.90
2017-09-11T09:51:52.832Z,0.93
2017-09-11T09:54:19.115Z,0.80
2017-09-11T09:56:45.397Z,0.80
2017-09-11T09:59:11.728Z,1.03
2017-09-11T10:01:38.171Z,0.80
2017-09-11T10:04:04.838Z,0.77
2017-09-11T10:06:31.172Z,0.83
2017-09-11T10:08:57.459Z,1.00
2017-09-11T10:11:23.801Z,0.77
2017-09-11T10:13:50.101Z,1.03
2017-09-11T10:16:16.919Z,0.73
2017-09-11T10:18:43.263Z,0.60
2017-09-11T10:21:09.569Z,0.70
2017-09-11T10:23:35.884Z,0.90
2017-09-11T10:26:02.182Z,0.90
2017-09-11T10:28:28.494Z,0.90
2017-09-11T10:30:54.769Z,0.60
2017-09-11T10:33:21.137Z,1.07
2017-09-11T10:35:47.476Z,1.00
2017-09-11T10:38:13.745Z,0.50
2017-09-11T10:40:40.025Z,0.90
2017-09-11T10:43:06.341Z,0.60
2017-09-11T10:45:32.604Z,0.70
2017-09-11T10:47:58.884Z,0.60
2017-09-11T10:50:25.227Z,0.90
2017-09-11T10:52:51.557Z,0.80
2017-09-11T10:55:17.885Z,0.87
2017-09-11T10:57:44.181Z,0.70
2017-09-11T11:00:10.490Z,0.70
2017-09-11T11:02:36.973Z,1.30
2017-09-11T11:05:03.353Z,0.60
2017-09-11T11:07:29.640Z,0.60
2017-09-11T11:09:55.956Z,0.90
2017-09-11T11:12:22.217Z,0.50
2017-09-11T11:14:48.545Z,0.83
2017-09-11T11:17:14.858Z,0.53
2017-09-11T11:19:41.168Z,0.63
2017-09-11T11:22:07.566Z,1.00
2017-09-11T11:24:33.829Z,0.60
2017-09-11T11:27:00.113Z,0.40
2017-09-11T11:29:26.400Z,0.60
2017-09-11T11:31:52.655Z,0.50
2017-09-11T11:34:18.953Z,0.60
2017-09-11T11:36:45.248Z,0.57
2017-09-11T11:39:11.540Z,0.90
2017-09-11T11:41:38.588Z,0.50
2017-09-11T11:44:04.912Z,0.50
2017-09-11T11:46:31.240Z,0.60
2017-09-11T11:48:57.516Z,0.80
2017-09-11T11:51:23.827Z,0.53
2017-09-11T11:53:50.140Z,0.37
2017-09-11T11:56:16.449Z,0.50
2017-09-11T11:58:42.804Z,0.80
2017-09-11T12:01:09.064Z,0.60
2017-09-11T12:03:35.343Z,0.40
2017-09-11T12:06:01.656Z,0.57
2017-09-11T12:08:28.279Z,0.57
2017-09-11T12:10:54.676Z,0.30
2017-09-11T12:13:21.201Z,0.40
2017-09-11T12:15:47.511Z,0.60
2017-09-11T12:18:13.812Z,0.47
2017-09-11T12:20:40.145Z,0.60
2017-09-11T12:23:06.430Z,0.73
2017-09-11T12:25:32.936Z,0.60
2017-09-11T12:27:59.256Z,0.40
2017-09-11T12:30:25.553Z,0.50
2017-09-11T12:32:51.888Z,0.70
2017-09-11T12:35:18.229Z,0.50
2017-09-11T12:37:44.529Z,0.57
2017-09-11T12:40:10.849Z,0.53
2017-09-11T12:42:37.145Z,0.60
2017-09-11T12:45:03.480Z,0.60
2017-09-11T12:47:29.829Z,0.60
2017-09-11T12:49:56.111Z,0.70
2017-09-11T12:52:22.360Z,0.47
2017-09-11T12:54:48.718Z,0.30
2017-09-11T12:57:15.000Z,0.43
2017-09-11T12:59:41.275Z,0.70
2017-09-11T13:02:07.584Z,0.60
2017-09-11T13:04:33.884Z,0.40
2017-09-11T13:07:00.200Z,0.30
2017-09-11T13:09:26.761Z,0.50
2017-09-11T13:11:53.189Z,0.40
2017-09-11T13:14:19.494Z,0.53
2017-09-11T13:16:45.823Z,0.30
2017-09-11T13:19:12.104Z,0.53
2017-09-11T13:21:38.431Z,0.47
2017-09-11T13:24:04.727Z,0.60
2017-09-11T13:26:30.994Z,0.50
2017-09-11T13:28:57.306Z,0.60
2017-09-11T13:31:23.573Z,0.40
2017-09-11T13:33:49.893Z,0.50
2017-09-11T13:36:16.197Z,0.60
2017-09-11T13:38:42.456Z,0.50
2017-09-11T13:41:08.793Z,0.50
2017-09-11T13:43:35.203Z,0.40
2017-09-11T13:46:01.864Z,0.43
2017-09-11T13:48:28.856Z,0.40
2017-09-11T13:50:55.156Z,0.40
2017-09-11T13:53:21.500Z,0.50
2017-09-11T13:55:47.780Z,0.50
2017-09-11T13:58:14.075Z,0.53
2017-09-11T14:00:40.368Z,0.50
2017-09-11T14:03:07.447Z,0.40
2017-09-11T14:05:33.805Z,0.50
2017-09-11T14:08:00.117Z,0.50
2017-09-11T14:10:26.420Z,0.60
2017-09-11T14:12:52.788Z,0.50
2017-09-11T14:15:19.052Z,0.40
2017-09-11T14:17:46.057Z,0.40
2017-09-11T14:20:12.384Z,0.50
2017-09-11T14:22:38.775Z,0.50
2017-09-11T14:25:05.085Z,0.60
2017-09-11T14:27:31.388Z,0.40
2017-09-11T14:29:57.648Z,0.60
2017-09-11T14:32:23.921Z,0.50
2017-09-11T14:34:50.265Z,0.50
2017-09-11T14:37:16.626Z,0.50
2017-09-11T14:39:42.976Z,0.50
2017-09-11T14:42:09.275Z,0.40
2017-09-11T14:44:35.614Z,0.40
2017-09-11T14:47:01.925Z,0.50
2017-09-11T14:50:00.180Z,0.50
2017-09-11T14:52:27.739Z,0.33
2017-09-11T14:54:55.244Z,0.40
2017-09-11T14:57:22.858Z,0.40
2017-09-11T14:59:50.379Z,0.60
2017-09-11T15:02:17.879Z,0.40
2017-09-11T15:04:45.398Z,0.40
2017-09-11T15:07:13.301Z,0.50
2017-09-11T15:09:40.801Z,0.50
2017-09-11T15:12:08.300Z,0.40
2017-09-11T15:14:35.829Z,0.60
2017-09-11T15:17:03.322Z,0.53
2017-09-11T15:19:30.893Z,0.50
2017-09-11T15:21:58.399Z,0.50
2017-09-11T15:24:25.928Z,0.50
2017-09-11T15:26:53.456Z,0.40
2017-09-11T15:29:21.028Z,0.50
2017-09-11T15:31:48.529Z,0.40
2017-09-11T15:34:16.029Z,0.40
2017-09-11T15:36:43.807Z,0.40
2017-09-11T15:39:11.605Z,0.60
2017-09-11T15:41:39.104Z,0.60
2017-09-11T15:44:06.616Z,0.40
2017-09-11T15:46:34.264Z,0.50
2017-09-11T15:49:02.687Z,0.50
2017-09-11T15:51:30.219Z,0.53
2017-09-11T15:53:57.747Z,0.70
2017-09-11T15:56:25.333Z,0.50
2017-09-11T15:58:52.867Z,0.70
2017-09-11T16:01:20.431Z,0.43
2017-09-11T16:03:47.973Z,0.50
2017-09-11T16:06:15.472Z,0.50
2017-09-11T16:08:43.106Z,0.80
2017-09-11T16:11:10.640Z,0.60
2017-09-11T16:13:38.154Z,0.47
2017-09-11T16:16:05.684Z,0.60
2017-09-11T16:18:33.218Z,0.60
2017-09-11T16:21:01.619Z,0.70
2017-09-11T16:23:29.142Z,0.50
2017-09-11T16:25:56.673Z,0.40
2017-09-11T16:28:24.265Z,0.60
2017-09-11T16:30:52.520Z,0.70
2017-09-11T16:33:20.439Z,0.70
2017-09-11T16:35:47.997Z,0.63
2017-09-11T16:38:15.497Z,0.60
2017-09-11T16:40:43.118Z,0.63
2017-09-11T16:43:10.643Z,0.93
2017-09-11T16:45:38.139Z,0.60
2017-09-11T16:48:05.768Z,0.77
2017-09-11T16:50:34.025Z,0.50
2017-09-11T16:53:01.582Z,0.63
2017-09-11T16:55:29.091Z,0.50
2017-09-11T16:57:56.723Z,0.80
2017-09-11T17:00:24.243Z,0.50
2017-09-11T17:02:51.764Z,0.80
2017-09-11T17:05:19.317Z,0.63
2017-09-11T17:07:47.109Z,1.07
2017-09-11T17:10:14.673Z,0.80
2017-09-11T17:12:43.544Z,0.90
2017-09-11T17:15:11.077Z,0.80
2017-09-11T17:17:38.613Z,0.70
2017-09-11T17:20:06.115Z,1.13
2017-09-11T17:22:33.659Z,0.63
2017-09-11T17:25:01.214Z,0.80
2017-09-11T17:27:28.738Z,0.90
2017-09-11T17:29:56.505Z,1.00
2017-09-11T17:32:24.108Z,0.90
2017-09-11T17:34:51.738Z,1.23
2017-09-11T17:37:19.283Z,0.87
2017-09-11T17:39:46.897Z,0.80
2017-09-11T17:42:14.474Z,1.00
2017-09-11T17:44:42.169Z,1.00
2017-09-11T17:47:09.663Z,1.40
2017-09-11T17:49:37.232Z,1.40
2017-09-11T17:52:04.720Z,1.30
2017-09-11T17:54:33.015Z,1.80
2017-09-11T17:57:00.590Z,1.10
2017-09-11T17:59:28.081Z,1.50
2017-09-11T18:01:55.616Z,1.20
2017-09-11T18:04:23.119Z,1.00
2017-09-11T18:06:50.657Z,1.37
2017-09-11T18:09:18.386Z,1.47
2017-09-11T18:11:45.953Z,1.47
2017-09-11T18:14:13.605Z,1.37
2017-09-11T18:16:41.323Z,1.20
2017-09-11T18:19:09.748Z,1.20
2017-09-11T18:21:37.382Z,1.07
2017-09-11T18:24:04.897Z,1.10
2017-09-11T18:26:33.373Z,1.03
2017-09-11T18:29:01.617Z,1.57
2017-09-11T18:31:29.124Z,1.37
2017-09-11T18:33:56.682Z,0.87
2017-09-11T18:36:24.260Z,1.10
2017-09-11T18:38:51.818Z,1.10
2017-09-11T18:41:19.360Z,1.20
2017-09-11T18:43:46.975Z,1.40
2017-09-11T18:46:14.512Z,1.00
2017-09-11T18:48:42.156Z,1.17
2017-09-11T18:51:09.671Z,1.10
2017-09-11T18:53:37.379Z,1.03
2017-09-11T18:56:05.037Z,1.00
2017-09-11T18:58:32.548Z,1.10
2017-09-11T19:01:00.132Z,1.00
2017-09-11T19:03:27.818Z,0.97
2017-09-11T19:05:55.421Z,1.03
2017-09-11T19:08:22.945Z,1.37
2017-09-11T19:10:50.466Z,1.00
2017-09-11T19:13:18.786Z,1.10
2017-09-11T19:15:46.498Z,1.40
2017-09-11T19:18:14.294Z,1.07
2017-09-11T19:20:41.788Z,1.03
2017-09-11T19:23:09.347Z,1.20
2017-09-11T19:25:37.083Z,0.80
2017-09-11T19:28:05.466Z,1.13
2017-09-11T19:30:33.074Z,0.97
2017-09-11T19:33:00.567Z,1.13
2017-09-11T19:35:28.123Z,0.97
2017-09-11T19:37:55.612Z,0.80
2017-09-11T19:40:23.204Z,0.90
2017-09-11T19:42:50.760Z,0.80
2017-09-11T19:45:18.312Z,1.30
2017-09-11T19:47:45.872Z,0.97
2017-09-11T19:50:13.371Z,1.20
2017-09-11T19:52:40.861Z,1.20
2017-09-11T19:55:08.412Z,0.80
2017-09-11T19:57:35.973Z,0.90
2017-09-11T20:00:03.498Z,1.03
2017-09-11T20:02:30.993Z,1.00
2017-09-11T20:04:58.880Z,1.27
2017-09-11T20:07:26.416Z,1.20
2017-09-11T20:09:53.909Z,1.00
2017-09-11T20:12:21.437Z,0.90
2017-09-11T20:14:48.991Z,0.90
2017-09-11T20:17:16.545Z,1.17
2017-09-11T20:19:44.208Z,0.90
2017-09-11T20:22:11.705Z,0.60
2017-09-11T20:24:39.236Z,0.80
2017-09-11T20:27:06.733Z,0.97
2017-09-11T20:29:34.227Z,1.10
2017-09-11T20:32:01.758Z,1.37
2017-09-11T20:34:30.016Z,0.90
2017-09-11T20:36:57.552Z,1.00
2017-09-11T20:39:25.038Z,0.80
2017-09-11T20:41:52.550Z,1.10
2017-09-11T20:44:20.496Z,1.13
2017-09-11T20:46:48.004Z,0.93
2017-09-11T20:49:15.565Z,0.83
2017-09-11T20:51:43.241Z,1.00
2017-09-11T20:54:10.739Z,0.80
2017-09-11T20:56:38.276Z,1.00
2017-09-11T20:59:05.777Z,0.90
2017-09-11T21:01:33.442Z,1.00
2017-09-11T21:04:00.984Z,1.00
2017-09-11T21:06:28.513Z,0.90
2017-09-11T21:08:56.017Z,0.70
2017-09-11T21:11:23.516Z,1.00
2017-09-11T21:13:51.333Z,0.83
2017-09-11T21:16:18.868Z,0.93
2017-09-11T21:18:46.465Z,0.87
2017-09-11T21:21:14.001Z,0.90
2017-09-11T21:23:41.509Z,0.77
2017-09-11T21:26:09.213Z,0.80
2017-09-11T21:28:36.748Z,1.20
2017-09-11T21:31:04.279Z,0.57
2017-09-11T21:33:32.110Z,1.23
2017-09-11T21:35:59.677Z,1.10
2017-09-11T21:38:27.176Z,0.90
2017-09-11T21:40:54.936Z,0.50
2017-09-11T21:43:22.711Z,1.00
2017-09-11T21:45:50.890Z,0.80
2017-09-11T21:48:18.429Z,0.80
2017-09-11T21:50:45.956Z,0.70
2017-09-11T21:53:13.462Z,0.70
2017-09-11T21:55:40.980Z,0.60
2017-09-11T21:58:08.533Z,1.53
2017-09-11T22:00:36.020Z,0.70
2017-09-11T22:03:03.504Z,0.87
2017-09-11T22:05:31.808Z,0.80
2017-09-11T22:07:59.336Z,0.73
2017-09-11T22:10:27.605Z,0.90
2017-09-11T22:12:55.168Z,0.70
2017-09-11T22:15:22.727Z,1.00
2017-09-11T22:17:50.238Z,1.10
2017-09-11T22:20:17.792Z,0.97
2017-09-11T22:22:45.352Z,0.93
2017-09-11T22:25:12.892Z,0.90
2017-09-11T22:27:40.388Z,0.90
2017-09-11T22:30:07.923Z,0.73
2017-09-11T22:32:35.434Z,0.87
2017-09-11T22:35:03.044Z,0.97
2017-09-11T22:37:30.556Z,0.90
2017-09-11T22:39:58.052Z,0.93
2017-09-11T22:42:25.585Z,0.70
2017-09-11T22:44:53.907Z,0.90
2017-09-11T22:47:21.417Z,1.00
2017-09-11T22:49:49.688Z,1.07
2017-09-11T22:52:17.220Z,0.83
2017-09-11T22:54:44.726Z,0.90
2017-09-11T22:57:15.212Z,0.70
2017-09-11T22:59:42.736Z,0.80
2017-09-11T23:02:10.466Z,1.03
2017-09-11T23:04:38.788Z,0.93
2017-09-11T23:07:06.356Z,1.00
2017-09-11T23:09:34.049Z,1.00
2017-09-11T23:12:01.587Z,0.80
2017-09-11T23:14:29.110Z,1.17
2017-09-11T23:16:56.785Z,0.93
2017-09-11T23:19:24.418Z,0.80
2017-09-11T23:21:51.917Z,0.90
2017-09-11T23:24:19.459Z,0.77
2017-09-11T23:26:46.953Z,0.90
2017-09-11T23:29:14.462Z,0.67
2017-09-11T23:31:41.997Z,1.00
2017-09-11T23:34:09.492Z,0.90
2017-09-11T23:36:37.011Z,0.77
2017-09-11T23:39:05.309Z,0.87
2017-09-11T23:41:32.840Z,0.83
2017-09-11T23:44:01.164Z,0.80
2017-09-11T23:46:28.665Z,0.80
2017-09-11T23:48:56.505Z,0.80
2017-09-11T23:51:24.181Z,0.83
2017-09-11T23:53:51.681Z,0.97
2017-09-11T23:56:20.268Z,0.60
2017-09-11T23:58:47.753Z,0.87
